sensor_id;sensor_type;location;lat;lon;timestamp;pressure;altitude;pressure_sealevel;temperature;humidity
43217;BME280;60511;42.686;23.300;2022-10-16T00:01:14;95348.25;;;22.57;33.85
43217;BME280;60511;42.686;23.300;2022-10-16T00:03:14;95350.50;;;22.55;33.88
43217;BME280;60511;42.686;23.300;2022-10-16T00:05:15;95350.50;;;22.55;33.95
43217;BME280;60511;42.686;23.300;2022-10-16T00:07:15;95357.47;;;22.56;34.20
43217;BME280;60511;42.686;23.300;2022-10-16T00:09:15;95354.31;;;22.54;34.21
43217;BME280;60511;42.686;23.300;2022-10-16T00:11:25;95361.63;;;22.54;33.91
43217;BME280;60511;42.686;23.300;2022-10-16T00:13:26;95354.66;;;22.53;34.17
43217;BME280;60511;42.686;23.300;2022-10-16T00:15:26;95363.66;;;22.57;34.00
43217;BME280;60511;42.686;23.300;2022-10-16T00:17:26;95357.34;;;22.53;34.23
43217;BME280;60511;42.686;23.300;2022-10-16T00:19:27;95360.03;;;22.53;34.08
43217;BME280;60511;42.686;23.300;2022-10-16T00:21:28;95361.28;;;22.55;34.10
43217;BME280;60511;42.686;23.300;2022-10-16T00:23:28;95360.81;;;22.53;34.14
43217;BME280;60511;42.686;23.300;2022-10-16T00:25:28;95366.09;;;22.50;33.83
43217;BME280;60511;42.686;23.300;2022-10-16T00:27:29;95361.97;;;22.52;33.95
43217;BME280;60511;42.686;23.300;2022-10-16T00:29:29;95369.38;;;22.55;34.09
43217;BME280;60511;42.686;23.300;2022-10-16T00:31:29;95371.28;;;22.55;34.09
43217;BME280;60511;42.686;23.300;2022-10-16T00:33:30;95373.06;;;22.51;34.17
43217;BME280;60511;42.686;23.300;2022-10-16T00:35:30;95371.97;;;22.52;34.15
43217;BME280;60511;42.686;23.300;2022-10-16T00:37:31;95370.84;;;22.53;33.99
43217;BME280;60511;42.686;23.300;2022-10-16T00:39:31;95379.25;;;22.51;34.06
43217;BME280;60511;42.686;23.300;2022-10-16T00:41:31;95378.47;;;22.51;34.05
43217;BME280;60511;42.686;23.300;2022-10-16T00:45:41;95367.66;;;22.51;34.10
43217;BME280;60511;42.686;23.300;2022-10-16T00:47:42;95374.66;;;22.52;33.70
43217;BME280;60511;42.686;23.300;2022-10-16T00:49:49;95370.22;;;22.47;33.89
43217;BME280;60511;42.686;23.300;2022-10-16T00:51:51;95369.28;;;22.52;34.05
43217;BME280;60511;42.686;23.300;2022-10-16T00:53:52;95366.09;;;22.50;33.98
43217;BME280;60511;42.686;23.300;2022-10-16T00:55:52;95366.56;;;22.52;33.99
43217;BME280;60511;42.686;23.300;2022-10-16T00:57:53;95359.25;;;22.52;34.03
43217;BME280;60511;42.686;23.300;2022-10-16T00:59:54;95371.50;;;22.50;33.97
43217;BME280;60511;42.686;23.300;2022-10-16T01:01:55;95371.50;;;22.50;33.99
43217;BME280;60511;42.686;23.300;2022-10-16T01:03:56;95373.84;;;22.51;33.97
43217;BME280;60511;42.686;23.300;2022-10-16T01:06:19;95374.66;;;22.52;33.76
43217;BME280;60511;42.686;23.300;2022-10-16T01:08:22;95379.59;;;22.50;34.03
43217;BME280;60511;42.686;23.300;2022-10-16T01:11:12;95374.53;;;22.48;34.00
43217;BME280;60511;42.686;23.300;2022-10-16T01:12:50;95382.94;;;22.46;33.78
43217;BME280;60511;42.686;23.300;2022-10-16T01:15:02;95377.22;;;22.48;34.08
43217;BME280;60511;42.686;23.300;2022-10-16T01:17:12;95379.47;;;22.46;33.94
43217;BME280;60511;42.686;23.300;2022-10-16T01:19:20;95373.59;;;22.44;33.98
43217;BME280;60511;42.686;23.300;2022-10-16T01:21:29;95371.50;;;22.50;34.03
43217;BME280;60511;42.686;23.300;2022-10-16T01:26:04;95365.28;;;22.49;33.97
43217;BME280;60511;42.686;23.300;2022-10-16T01:28:09;95361.03;;;22.48;33.99
43217;BME280;60511;42.686;23.300;2022-10-16T01:30:21;95367.88;;;22.45;34.08
43217;BME280;60511;42.686;23.300;2022-10-16T01:34:33;95360.56;;;22.46;33.79
43217;BME280;60511;42.686;23.300;2022-10-16T01:36:37;95363.28;;;22.46;33.85
43217;BME280;60511;42.686;23.300;2022-10-16T01:38:39;95367.06;;;22.45;33.78
43217;BME280;60511;42.686;23.300;2022-10-16T01:40:41;95364.06;;;22.46;33.96
43217;BME280;60511;42.686;23.300;2022-10-16T01:42:45;95365.69;;;22.39;34.11
43217;BME280;60511;42.686;23.300;2022-10-16T01:44:47;95368.06;;;22.40;34.00
43217;BME280;60511;42.686;23.300;2022-10-16T01:46:49;95364.72;;;22.43;33.98
43217;BME280;60511;42.686;23.300;2022-10-16T01:48:50;95373.28;;;22.45;33.80
43217;BME280;60511;42.686;23.300;2022-10-16T01:50:56;95373.28;;;22.45;33.80
43217;BME280;60511;42.686;23.300;2022-10-16T01:52:57;95375.06;;;22.41;33.97
43217;BME280;60511;42.686;23.300;2022-10-16T01:54:58;95381.38;;;22.45;33.91
43217;BME280;60511;42.686;23.300;2022-10-16T01:56:59;95373.59;;;22.44;33.94
43217;BME280;60511;42.686;23.300;2022-10-16T01:59:09;95374.69;;;22.43;33.93
43217;BME280;60511;42.686;23.300;2022-10-16T02:01:11;95192.91;;;21.21;34.00
43217;BME280;60511;42.686;23.300;2022-10-16T02:03:13;95381.88;;;22.39;34.03
43217;BME280;60511;42.686;23.300;2022-10-16T02:05:16;95387.72;;;22.41;33.92
43217;BME280;60511;42.686;23.300;2022-10-16T02:07:19;95388.53;;;22.41;33.97
43217;BME280;60511;42.686;23.300;2022-10-16T02:09:19;95392.16;;;22.45;33.77
43217;BME280;60511;42.686;23.300;2022-10-16T02:11:20;95391.34;;;22.45;33.74
43217;BME280;60511;42.686;23.300;2022-10-16T02:13:30;95392.81;;;22.42;33.88
43217;BME280;60511;42.686;23.300;2022-10-16T02:15:33;95387.41;;;22.42;33.57
43217;BME280;60511;42.686;23.300;2022-10-16T02:17:33;95393.59;;;22.43;33.88
43217;BME280;60511;42.686;23.300;2022-10-16T02:19:33;95403.28;;;22.44;33.61
43217;BME280;60511;42.686;23.300;2022-10-16T02:23:43;95403.13;;;22.40;33.89
43217;BME280;60511;42.686;23.300;2022-10-16T02:25:46;95408.53;;;22.40;33.44
43217;BME280;60511;42.686;23.300;2022-10-16T02:27:50;95405.34;;;22.38;33.77
43217;BME280;60511;42.686;23.300;2022-10-16T02:29:55;95402.66;;;22.38;33.82
43217;BME280;60511;42.686;23.300;2022-10-16T02:32:00;95401.22;;;22.41;33.90
43217;BME280;60511;42.686;23.300;2022-10-16T02:34:01;95405.34;;;22.38;33.73
43217;BME280;60511;42.686;23.300;2022-10-16T02:36:05;95408.06;;;22.38;33.58
43217;BME280;60511;42.686;23.300;2022-10-16T02:38:05;95405.03;;;22.40;33.74
43217;BME280;60511;42.686;23.300;2022-10-16T02:40:06;95404.56;;;22.38;33.89
43217;BME280;60511;42.686;23.300;2022-10-16T02:42:13;95405.81;;;22.40;33.86
43217;BME280;60511;42.686;23.300;2022-10-16T02:44:13;95405.81;;;22.40;33.79
43217;BME280;60511;42.686;23.300;2022-10-16T02:46:14;95404.25;;;22.39;33.69
43217;BME280;60511;42.686;23.300;2022-10-16T02:48:14;95407.59;;;22.36;33.92
43217;BME280;60511;42.686;23.300;2022-10-16T02:50:15;95415.38;;;22.38;33.69
43217;BME280;60511;42.686;23.300;2022-10-16T02:52:15;95416.63;;;22.40;33.63
43217;BME280;60511;42.686;23.300;2022-10-16T02:54:15;95416.47;;;22.37;33.60
43217;BME280;60511;42.686;23.300;2022-10-16T02:56:16;95424.91;;;22.35;33.93
43217;BME280;60511;42.686;23.300;2022-10-16T02:58:16;95422.22;;;22.35;33.87
43217;BME280;60511;42.686;23.300;2022-10-16T03:00:16;95423.00;;;22.36;33.83
43217;BME280;60511;42.686;23.300;2022-10-16T03:02:17;95422.69;;;22.37;33.45
43217;BME280;60511;42.686;23.300;2022-10-16T03:04:17;95426.78;;;22.35;33.63
43217;BME280;60511;42.686;23.300;2022-10-16T03:06:19;95432.34;;;22.38;33.54
43217;BME280;60511;42.686;23.300;2022-10-16T03:08:19;95426.94;;;22.38;33.76
43217;BME280;60511;42.686;23.300;2022-10-16T03:10:23;95428.72;;;22.34;33.78
43217;BME280;60511;42.686;23.300;2022-10-16T03:12:23;95424.91;;;22.35;33.84
43217;BME280;60511;42.686;23.300;2022-10-16T03:14:23;95424.44;;;22.33;33.89
43217;BME280;60511;42.686;23.300;2022-10-16T03:16:24;95431.56;;;22.38;33.42
43217;BME280;60511;42.686;23.300;2022-10-16T03:18:24;95421.09;;;22.36;33.75
43217;BME280;60511;42.686;23.300;2022-10-16T03:20:25;95427.59;;;22.35;33.70
43217;BME280;60511;42.686;23.300;2022-10-16T03:22:25;95425.69;;;22.36;33.68
43217;BME280;60511;42.686;23.300;2022-10-16T03:24:25;95432.19;;;22.35;33.77
43217;BME280;60511;42.686;23.300;2022-10-16T03:26:26;95432.84;;;22.32;33.70
43217;BME280;60511;42.686;23.300;2022-10-16T03:28:26;95440.28;;;22.35;33.78
43217;BME280;60511;42.686;23.300;2022-10-16T03:30:26;95438.38;;;22.35;33.71
43217;BME280;60511;42.686;23.300;2022-10-16T03:32:26;95427.91;;;22.34;33.34
43217;BME280;60511;42.686;23.300;2022-10-16T03:34:28;95442.03;;;22.31;33.83
43217;BME280;60511;42.686;23.300;2022-10-16T03:36:28;95437.78;;;22.30;33.88
43217;BME280;60511;42.686;23.300;2022-10-16T03:38:29;95442.19;;;22.34;33.47
43217;BME280;60511;42.686;23.300;2022-10-16T03:40:29;95431.41;;;22.34;33.37
43217;BME280;60511;42.686;23.300;2022-10-16T03:42:32;95439.03;;;22.32;33.82
43217;BME280;60511;42.686;23.300;2022-10-16T03:44:32;95438.25;;;22.32;33.64
43217;BME280;60511;42.686;23.300;2022-10-16T03:46:32;95438.38;;;22.35;33.30
43217;BME280;60511;42.686;23.300;2022-10-16T03:48:32;95438.72;;;22.34;33.67
43217;BME280;60511;42.686;23.300;2022-10-16T03:50:33;95430.94;;;22.32;33.34
43217;BME280;60511;42.686;23.300;2022-10-16T03:52:33;95430.16;;;22.32;33.65
43217;BME280;60511;42.686;23.300;2022-10-16T03:54:33;95428.88;;;22.29;33.45
43217;BME280;60511;42.686;23.300;2022-10-16T03:56:34;95427.00;;;22.30;33.80
43217;BME280;60511;42.686;23.300;2022-10-16T03:58:34;95427.47;;;22.32;33.27
43217;BME280;60511;42.686;23.300;2022-10-16T04:00:34;95421.75;;;22.33;33.54
43217;BME280;60511;42.686;23.300;2022-10-16T04:02:34;95427.13;;;22.33;33.30
43217;BME280;60511;42.686;23.300;2022-10-16T04:04:35;95429.03;;;22.33;33.68
43217;BME280;60511;42.686;23.300;2022-10-16T04:06:35;95434.28;;;22.29;33.47
43217;BME280;60511;42.686;23.300;2022-10-16T04:08:35;95433.81;;;22.27;33.77
43217;BME280;60511;42.686;23.300;2022-10-16T04:10:36;95432.38;;;22.30;33.71
43217;BME280;60511;42.686;23.300;2022-10-16T04:12:36;95427.81;;;22.21;33.78
43217;BME280;60511;42.686;23.300;2022-10-16T04:14:37;95432.56;;;22.24;33.59
43217;BME280;60511;42.686;23.300;2022-10-16T04:16:37;95427.63;;;22.26;33.53
43217;BME280;60511;42.686;23.300;2022-10-16T04:18:37;95434.63;;;22.27;33.45
43217;BME280;60511;42.686;23.300;2022-10-16T04:20:37;95435.06;;;22.21;33.36
43217;BME280;60511;42.686;23.300;2022-10-16T04:22:38;95436.03;;;22.25;33.58
43217;BME280;60511;42.686;23.300;2022-10-16T04:24:39;95433.69;;;22.23;33.59
43217;BME280;60511;42.686;23.300;2022-10-16T04:26:39;95432.25;;;22.26;33.76
43217;BME280;60511;42.686;23.300;2022-10-16T04:28:39;95439.09;;;22.23;33.63
43217;BME280;60511;42.686;23.300;2022-10-16T04:30:40;95440.16;;;22.22;33.74
43217;BME280;60511;42.686;23.300;2022-10-16T04:32:40;95444.47;;;22.23;33.58
43217;BME280;60511;42.686;23.300;2022-10-16T04:34:40;95444.13;;;22.25;33.55
43217;BME280;60511;42.686;23.300;2022-10-16T04:36:41;95443.50;;;22.19;33.62
43217;BME280;60511;42.686;23.300;2022-10-16T04:38:41;95446.22;;;22.19;33.60
43217;BME280;60511;42.686;23.300;2022-10-16T04:40:42;95436.84;;;22.25;33.61
43217;BME280;60511;42.686;23.300;2022-10-16T04:42:42;95448.88;;;22.28;33.29
43217;BME280;60511;42.686;23.300;2022-10-16T04:44:42;95453.81;;;22.26;33.44
43217;BME280;60511;42.686;23.300;2022-10-16T04:46:43;95451.91;;;22.26;33.52
43217;BME280;60511;42.686;23.300;2022-10-16T04:48:44;95453.81;;;22.26;33.43
43217;BME280;60511;42.686;23.300;2022-10-16T04:50:44;95460.31;;;22.25;33.51
43217;BME280;60511;42.686;23.300;2022-10-16T04:52:45;95466.84;;;22.24;33.60
43217;BME280;60511;42.686;23.300;2022-10-16T04:54:45;95466.84;;;22.24;33.34
43217;BME280;60511;42.686;23.300;2022-10-16T04:56:45;95467.91;;;22.23;33.31
43217;BME280;60511;42.686;23.300;2022-10-16T04:58:47;95470.00;;;22.17;33.34
43217;BME280;60511;42.686;23.300;2022-10-16T05:00:48;95474.13;;;22.23;33.24
43217;BME280;60511;42.686;23.300;2022-10-16T05:02:51;95475.84;;;22.28;33.57
43217;BME280;60511;42.686;23.300;2022-10-16T05:04:51;95477.78;;;22.27;33.40
43217;BME280;60511;42.686;23.300;2022-10-16T05:06:52;95474.91;;;22.24;33.40
43217;BME280;60511;42.686;23.300;2022-10-16T05:08:52;95481.72;;;22.30;33.45
43217;BME280;60511;42.686;23.300;2022-10-16T05:10:52;95480.78;;;22.26;33.08
43217;BME280;60511;42.686;23.300;2022-10-16T05:12:53;95479.81;;;22.31;33.22
43217;BME280;60511;42.686;23.300;2022-10-16T05:14:54;95476.47;;;22.34;33.07
43217;BME280;60511;42.686;23.300;2022-10-16T05:16:59;95484.25;;;22.35;33.34
43217;BME280;60511;42.686;23.300;2022-10-16T05:18:59;95482.13;;;22.41;33.25
43217;BME280;60511;42.686;23.300;2022-10-16T05:20:59;95483.25;;;22.40;33.06
43217;BME280;60511;42.686;23.300;2022-10-16T05:23:00;95487.06;;;22.39;32.96
43217;BME280;60511;42.686;23.300;2022-10-16T05:25:00;95485.97;;;22.40;33.02
43217;BME280;60511;42.686;23.300;2022-10-16T05:27:00;95496.75;;;22.40;32.93
43217;BME280;60511;42.686;23.300;2022-10-16T05:29:00;95488.97;;;22.38;32.98
43217;BME280;60511;42.686;23.300;2022-10-16T05:31:05;95492.91;;;22.41;32.82
43217;BME280;60511;42.686;23.300;2022-10-16T05:33:05;95494.19;;;22.43;32.58
43217;BME280;60511;42.686;23.300;2022-10-16T05:35:06;95492.44;;;22.48;32.87
43217;BME280;60511;42.686;23.300;2022-10-16T05:37:06;95494.00;;;22.49;32.88
43217;BME280;60511;42.686;23.300;2022-10-16T05:39:06;95489.06;;;22.51;32.70
43217;BME280;60511;42.686;23.300;2022-10-16T05:41:07;95494.00;;;22.49;32.36
43217;BME280;60511;42.686;23.300;2022-10-16T05:43:07;95486.38;;;22.51;32.36
43217;BME280;60511;42.686;23.300;2022-10-16T05:45:08;95490.97;;;22.50;32.99
43217;BME280;60511;42.686;23.300;2022-10-16T05:47:09;95494.16;;;22.52;32.78
43217;BME280;60511;42.686;23.300;2022-10-16T05:49:10;95498.09;;;22.55;32.73
43217;BME280;60511;42.686;23.300;2022-10-16T05:51:12;95500.47;;;22.56;32.49
43217;BME280;60511;42.686;23.300;2022-10-16T05:53:12;95501.25;;;22.57;32.49
43217;BME280;60511;42.686;23.300;2022-10-16T05:55:12;95504.41;;;22.59;32.55
43217;BME280;60511;42.686;23.300;2022-10-16T05:57:13;95502.50;;;22.59;32.66
43217;BME280;60511;42.686;23.300;2022-10-16T05:59:13;95514.13;;;22.60;32.73
43217;BME280;60511;42.686;23.300;2022-10-16T06:01:14;95521.06;;;22.61;32.73
43217;BME280;60511;42.686;23.300;2022-10-16T06:03:15;95528.06;;;22.62;32.73
43217;BME280;60511;42.686;23.300;2022-10-16T06:05:15;95527.72;;;22.63;32.44
43217;BME280;60511;42.686;23.300;2022-10-16T06:07:15;95521.53;;;22.63;32.55
43217;BME280;60511;42.686;23.300;2022-10-16T06:09:15;95526.94;;;22.63;32.69
43217;BME280;60511;42.686;23.300;2022-10-16T06:11:17;95535.50;;;22.65;32.38
43217;BME280;60511;42.686;23.300;2022-10-16T06:13:18;95534.41;;;22.66;32.70
43217;BME280;60511;42.686;23.300;2022-10-16T06:15:18;95538.97;;;22.65;32.57
43217;BME280;60511;42.686;23.300;2022-10-16T06:17:18;95542.50;;;22.66;32.32
43217;BME280;60511;42.686;23.300;2022-10-16T06:19:18;95535.97;;;22.67;32.74
43217;BME280;60511;42.686;23.300;2022-10-16T06:21:20;95541.81;;;22.69;32.60
43217;BME280;60511;42.686;23.300;2022-10-16T06:23:21;95535.66;;;22.69;32.35
43217;BME280;60511;42.686;23.300;2022-10-16T06:25:22;95547.22;;;22.69;32.36
43217;BME280;60511;42.686;23.300;2022-10-16T06:27:22;95534.50;;;22.70;32.44
43217;BME280;60511;42.686;23.300;2022-10-16T06:29:22;95547.69;;;22.71;32.65
43217;BME280;60511;42.686;23.300;2022-10-16T06:31:22;95542.28;;;22.71;32.67
43217;BME280;60511;42.686;23.300;2022-10-16T06:33:27;95549.28;;;22.72;32.60
43217;BME280;60511;42.686;23.300;2022-10-16T06:35:27;95545.78;;;22.72;32.40
43217;BME280;60511;42.686;23.300;2022-10-16T06:37:29;95550.84;;;22.73;32.46
43217;BME280;60511;42.686;23.300;2022-10-16T06:39:30;95556.25;;;22.73;32.47
43217;BME280;60511;42.686;23.300;2022-10-16T06:41:30;95554.34;;;22.74;32.40
43217;BME280;60511;42.686;23.300;2022-10-16T06:43:31;95559.41;;;22.75;32.69
43217;BME280;60511;42.686;23.300;2022-10-16T06:45:32;95555.94;;;22.75;32.52
43217;BME280;60511;42.686;23.300;2022-10-16T06:47:32;95560.19;;;22.76;32.73
43217;BME280;60511;42.686;23.300;2022-10-16T06:49:32;95565.59;;;22.76;32.71
43217;BME280;60511;42.686;23.300;2022-10-16T06:51:32;95570.69;;;22.77;32.74
43217;BME280;60511;42.686;23.300;2022-10-16T06:53:35;95573.38;;;22.77;32.72
43217;BME280;60511;42.686;23.300;2022-10-16T06:55:36;95572.59;;;22.77;32.69
43217;BME280;60511;42.686;23.300;2022-10-16T06:57:36;95571.47;;;22.78;32.80
43217;BME280;60511;42.686;23.300;2022-10-16T06:59:36;95581.94;;;22.79;32.68
43217;BME280;60511;42.686;23.300;2022-10-16T07:01:37;95584.63;;;22.79;32.40
43217;BME280;60511;42.686;23.300;2022-10-16T07:03:38;95580.84;;;22.80;32.50
43217;BME280;60511;42.686;23.300;2022-10-16T07:05:39;95582.41;;;22.81;32.74
43217;BME280;60511;42.686;23.300;2022-10-16T07:07:39;95584.63;;;22.79;32.88
43217;BME280;60511;42.686;23.300;2022-10-16T07:09:40;95582.72;;;22.80;32.82
43217;BME280;60511;42.686;23.300;2022-10-16T07:11:40;95583.53;;;22.80;32.72
43217;BME280;60511;42.686;23.300;2022-10-16T07:13:41;95588.59;;;22.82;32.67
43217;BME280;60511;42.686;23.300;2022-10-16T07:15:41;95590.19;;;22.83;32.64
43217;BME280;60511;42.686;23.300;2022-10-16T07:17:43;95585.56;;;22.83;32.63
43217;BME280;60511;42.686;23.300;2022-10-16T07:19:44;95590.19;;;22.83;32.65
43217;BME280;60511;42.686;23.300;2022-10-16T07:21:44;95586.34;;;22.84;32.66
43217;BME280;60511;42.686;23.300;2022-10-16T07:23:45;95588.28;;;22.83;32.97
43217;BME280;60511;42.686;23.300;2022-10-16T07:25:45;95591.44;;;22.85;32.97
43217;BME280;60511;42.686;23.300;2022-10-16T07:27:45;95587.16;;;22.84;32.81
43217;BME280;60511;42.686;23.300;2022-10-16T07:29:46;95587.63;;;22.86;32.70
43217;BME280;60511;42.686;23.300;2022-10-16T07:31:47;95588.75;;;22.85;32.62
43217;BME280;60511;42.686;23.300;2022-10-16T07:33:47;95593.34;;;22.85;32.77
43217;BME280;60511;42.686;23.300;2022-10-16T07:35:49;95592.69;;;22.88;32.95
43217;BME280;60511;42.686;23.300;2022-10-16T07:37:49;95591.13;;;22.87;32.92
43217;BME280;60511;42.686;23.300;2022-10-16T07:39:50;95598.91;;;22.89;32.57
43217;BME280;60511;42.686;23.300;2022-10-16T07:41:50;95594.28;;;22.89;32.65
43217;BME280;60511;42.686;23.300;2022-10-16T07:43:53;95587.28;;;22.88;32.61
43217;BME280;60511;42.686;23.300;2022-10-16T07:45:54;95595.06;;;22.90;32.74
43217;BME280;60511;42.686;23.300;2022-10-16T07:47:55;95593.97;;;22.91;32.68
43217;BME280;60511;42.686;23.300;2022-10-16T07:49:55;95599.38;;;22.91;32.81
43217;BME280;60511;42.686;23.300;2022-10-16T07:51:55;95595.53;;;22.92;32.76
43217;BME280;60511;42.686;23.300;2022-10-16T07:53:56;95595.53;;;22.92;32.66
43217;BME280;60511;42.686;23.300;2022-10-16T07:56:00;95598.22;;;22.92;32.63
43217;BME280;60511;42.686;23.300;2022-10-16T07:58:01;95610.94;;;22.91;32.87
43217;BME280;60511;42.686;23.300;2022-10-16T08:00:01;95599.00;;;22.92;32.59
43217;BME280;60511;42.686;23.300;2022-10-16T08:02:01;95608.25;;;22.91;32.92
43217;BME280;60511;42.686;23.300;2022-10-16T08:04:01;95606.00;;;22.93;32.87
43217;BME280;60511;42.686;23.300;2022-10-16T08:06:02;95605.69;;;22.95;32.71
43217;BME280;60511;42.686;23.300;2022-10-16T08:08:03;95607.59;;;22.94;33.02
43217;BME280;60511;42.686;23.300;2022-10-16T08:10:03;95601.41;;;22.94;32.59
43217;BME280;60511;42.686;23.300;2022-10-16T08:12:04;95606.47;;;22.95;32.69
43217;BME280;60511;42.686;23.300;2022-10-16T08:14:05;95603.00;;;22.95;32.72
43217;BME280;60511;42.686;23.300;2022-10-16T08:16:05;95603.78;;;22.95;32.66
43217;BME280;60511;42.686;23.300;2022-10-16T08:18:09;95601.88;;;22.96;32.66
43217;BME280;60511;42.686;23.300;2022-10-16T08:20:09;95597.25;;;22.96;32.66
43217;BME280;60511;42.686;23.300;2022-10-16T08:22:10;95593.75;;;22.96;32.61
43217;BME280;60511;42.686;23.300;2022-10-16T08:24:10;95596.16;;;22.97;32.95
43217;BME280;60511;42.686;23.300;2022-10-16T08:26:11;95593.44;;;22.97;32.70
43217;BME280;60511;42.686;23.300;2022-10-16T08:28:11;95596.16;;;22.97;32.80
43217;BME280;60511;42.686;23.300;2022-10-16T08:30:13;95596.94;;;22.98;32.63
43217;BME280;60511;42.686;23.300;2022-10-16T08:32:13;95592.31;;;22.98;32.70
43217;BME280;60511;42.686;23.300;2022-10-16T08:34:13;95592.00;;;23.00;32.94
43217;BME280;60511;42.686;23.300;2022-10-16T08:36:14;95588.50;;;22.99;32.69
43217;BME280;60511;42.686;23.300;2022-10-16T08:38:15;95586.31;;;23.01;32.91
43217;BME280;60511;42.686;23.300;2022-10-16T08:40:19;95588.50;;;22.99;32.75
43217;BME280;60511;42.686;23.300;2022-10-16T08:42:36;95590.88;;;23.01;32.91
43217;BME280;60511;42.686;23.300;2022-10-16T08:49:05;95593.59;;;23.01;32.86
43217;BME280;60511;42.686;23.300;2022-10-16T08:51:09;95596.28;;;23.01;33.01
43217;BME280;60511;42.686;23.300;2022-10-16T08:53:16;95592.00;;;23.00;32.65
43217;BME280;60511;42.686;23.300;2022-10-16T08:55:23;95597.09;;;23.01;32.75
43217;BME280;60511;42.686;23.300;2022-10-16T08:57:26;95603.28;;;23.02;33.00
43217;BME280;60511;42.686;23.300;2022-10-16T08:59:27;95602.19;;;23.03;32.77
43217;BME280;60511;42.686;23.300;2022-10-16T09:01:46;95601.69;;;23.01;32.91
43217;BME280;60511;42.686;23.300;2022-10-16T09:10:26;95604.06;;;23.02;32.76
43217;BME280;60511;42.686;23.300;2022-10-16T09:14:35;95591.38;;;23.03;33.04
43217;BME280;60511;42.686;23.300;2022-10-16T09:16:42;95595.66;;;23.04;32.74
43217;BME280;60511;42.686;23.300;2022-10-16T09:21:08;95595.97;;;23.02;32.75
43217;BME280;60511;42.686;23.300;2022-10-16T09:25:13;95592.97;;;23.04;32.99
43217;BME280;60511;42.686;23.300;2022-10-16T09:27:14;95597.56;;;23.03;32.75
43217;BME280;60511;42.686;23.300;2022-10-16T09:29:19;95601.84;;;23.04;33.11
43217;BME280;60511;42.686;23.300;2022-10-16T09:31:24;95601.84;;;23.04;32.78
43217;BME280;60511;42.686;23.300;2022-10-16T09:33:37;95592.97;;;23.04;32.86
43217;BME280;60511;42.686;23.300;2022-10-16T09:35:43;95601.06;;;23.04;33.16
43217;BME280;60511;42.686;23.300;2022-10-16T09:37:44;95595.66;;;23.04;32.77
43217;BME280;60511;42.686;23.300;2022-10-16T09:41:46;95599.13;;;23.04;32.91
43217;BME280;60511;42.686;23.300;2022-10-16T09:46:03;95591.84;;;23.05;32.82
43217;BME280;60511;42.686;23.300;2022-10-16T09:48:10;95587.22;;;23.05;32.78
43217;BME280;60511;42.686;23.300;2022-10-16T09:50:29;95576.44;;;23.05;33.05
43217;BME280;60511;42.686;23.300;2022-10-16T09:52:29;95581.06;;;23.05;32.72
43217;BME280;60511;42.686;23.300;2022-10-16T09:54:30;95584.53;;;23.05;32.76
43217;BME280;60511;42.686;23.300;2022-10-16T09:56:32;95578.00;;;23.06;32.99
43217;BME280;60511;42.686;23.300;2022-10-16T09:58:33;95576.44;;;23.05;32.89
43217;BME280;60511;42.686;23.300;2022-10-16T10:00:33;95575.31;;;23.06;32.76
43217;BME280;60511;42.686;23.300;2022-10-16T10:02:34;95576.13;;;23.07;32.87
43217;BME280;60511;42.686;23.300;2022-10-16T10:04:39;95574.84;;;23.04;32.90
43217;BME280;60511;42.686;23.300;2022-10-16T10:06:42;95572.59;;;23.06;32.80
43217;BME280;60511;42.686;23.300;2022-10-16T10:08:52;95575.75;;;23.09;33.02
43217;BME280;60511;42.686;23.300;2022-10-16T10:10:53;95570.38;;;23.09;32.89
43217;BME280;60511;42.686;23.300;2022-10-16T10:12:54;95572.28;;;23.08;32.70
43217;BME280;60511;42.686;23.300;2022-10-16T10:14:56;95568.78;;;23.08;33.02
43217;BME280;60511;42.686;23.300;2022-10-16T10:19:12;95562.63;;;23.07;33.09
43217;BME280;60511;42.686;23.300;2022-10-16T10:21:13;95566.09;;;23.08;32.82
43217;BME280;60511;42.686;23.300;2022-10-16T10:23:24;95565.78;;;23.09;32.80
43217;BME280;60511;42.686;23.300;2022-10-16T10:25:35;95567.66;;;23.09;32.80
43217;BME280;60511;42.686;23.300;2022-10-16T10:29:51;95557.69;;;23.09;32.88
43217;BME280;60511;42.686;23.300;2022-10-16T10:32:02;95555.75;;;23.10;32.80
43217;BME280;60511;42.686;23.300;2022-10-16T10:38:40;95556.53;;;23.10;33.03
43217;BME280;60511;42.686;23.300;2022-10-16T10:45:27;95547.66;;;23.10;32.86
43217;BME280;60511;42.686;23.300;2022-10-16T10:56:08;95535.72;;;23.11;33.09
43217;BME280;60511;42.686;23.300;2022-10-16T11:07:13;95527.16;;;23.09;32.98
43217;BME280;60511;42.686;23.300;2022-10-16T11:09:25;95521.75;;;23.09;32.89
43217;BME280;60511;42.686;23.300;2022-10-16T11:11:30;95517.19;;;23.09;32.98
43217;BME280;60511;42.686;23.300;2022-10-16T11:13:54;95516.81;;;23.11;33.14
43217;BME280;60511;42.686;23.300;2022-10-16T11:15:57;95509.53;;;23.11;32.87
43217;BME280;60511;42.686;23.300;2022-10-16T11:20:14;95514.47;;;23.09;33.15
43217;BME280;60511;42.686;23.300;2022-10-16T11:22:20;95463.97;;;22.80;32.91
43217;BME280;60511;42.686;23.300;2022-10-16T11:24:27;95510.63;;;23.10;32.92
43217;BME280;60511;42.686;23.300;2022-10-16T11:26:34;95510.63;;;23.10;32.97
43217;BME280;60511;42.686;23.300;2022-10-16T11:28:37;95507.94;;;23.10;32.88
43217;BME280;60511;42.686;23.300;2022-10-16T11:30:44;95511.41;;;23.11;32.87
43217;BME280;60511;42.686;23.300;2022-10-16T11:32:54;95508.72;;;23.11;32.93
43217;BME280;60511;42.686;23.300;2022-10-16T11:35:06;95512.22;;;23.11;33.19
43217;BME280;60511;42.686;23.300;2022-10-16T11:41:27;95508.72;;;23.11;33.20
43217;BME280;60511;42.686;23.300;2022-10-16T11:43:38;95513.34;;;23.10;33.15
43217;BME280;60511;42.686;23.300;2022-10-16T11:45:45;95513.34;;;23.10;32.92
43217;BME280;60511;42.686;23.300;2022-10-16T11:50:20;95513.34;;;23.10;32.93